Home > Products > Valid Products > TAF

000
FTUS44 KMEG 110520
TAFTUP
TAF
KTUP 110520Z 1106/1206 05004KT P6SM SKC
     FM111500 09008KT P6SM FEW050 SCT250
     FM120000 04006KT P6SM BKN250=



000
FTUS44 KMEG 110520
TAFMEM
TAF
KMEM 110520Z 1106/1206 11008KT P6SM SKC
     FM111400 05010KT P6SM FEW050 SCT250
     FM120000 05006KT P6SM BKN250=



000
FTUS44 KMEG 110520
TAFJBR
TAF
KJBR 110520Z 1106/1206 10006KT P6SM SKC
     FM110800 05009KT P6SM FEW050 SCT250
     FM111500 05012G18KT P6SM FEW050 SCT250
     FM120000 04008KT P6SM BKN250=



000
FTUS44 KMEG 110520
TAFMKL
TAF
KMKL 110520Z 1106/1206 12007KT P6SM SKC
     FM111400 05010KT P6SM FEW050 SCT250
     FM120000 05006KT P6SM BKN250=



000
FTUS44 KMEG 110520
TAFMEM
TAF
KMEM 110520Z 1106/1206 11008KT P6SM SKC
     FM111400 05010KT P6SM FEW050 SCT250
     FM120000 05006KT P6SM BKN250=



000
FTUS44 KMEG 110520
TAFJBR
TAF
KJBR 110520Z 1106/1206 10006KT P6SM SKC
     FM110800 05009KT P6SM FEW050 SCT250
     FM111500 05012G18KT P6SM FEW050 SCT250
     FM120000 04008KT P6SM BKN250=



000
FTUS44 KMEG 110520
TAFMKL
TAF
KMKL 110520Z 1106/1206 12007KT P6SM SKC
     FM111400 05010KT P6SM FEW050 SCT250
     FM120000 05006KT P6SM BKN250=



000
FTUS44 KMEG 110520
TAFTUP
TAF
KTUP 110520Z 1106/1206 05004KT P6SM SKC
     FM111500 09008KT P6SM FEW050 SCT250
     FM120000 04006KT P6SM BKN250=



000
FTUS44 KMEG 110255 AAA
TAFMEM
TAF AMD
KMEM 110255Z 1103/1124 12006KT P6SM SKC
     FM111200 05008KT P6SM FEW050 SCT250=



000
FTUS44 KMEG 110255 AAA
TAFMEM
TAF AMD
KMEM 110255Z 1103/1124 12006KT P6SM SKC
     FM111200 05008KT P6SM FEW050 SCT250=



000
FTUS44 KMEG 102320
TAFJBR
TAF
KJBR 102320Z 1100/1124 19010KT P6SM SKC
     FM110800 05009KT P6SM FEW050 SCT250
     FM111500 05012G18KT P6SM FEW050 SCT250=



000
FTUS44 KMEG 102320
TAFMEM
TAF
KMEM 102320Z 1100/1124 20008KT P6SM FEW100
     FM110100 17006KT P6SM FEW050 SCT100
     FM111200 05008KT P6SM FEW050 SCT250=



000
FTUS44 KMEG 102320
TAFMEM
TAF
KMEM 102320Z 1100/1124 20008KT P6SM FEW100
     FM110100 17006KT P6SM FEW050 SCT100
     FM111200 05008KT P6SM FEW050 SCT250=



000
FTUS44 KMEG 102320
TAFMKL
TAF
KMKL 102320Z 1100/1124 21004KT P6SM SKC
     FM110100 12004KT P6SM FEW050 SCT100
     FM111200 06007KT P6SM FEW050 SCT250=



000
FTUS44 KMEG 102320
TAFTUP
TAF
KTUP 102320Z 1100/1124 20005KT P6SM SKC
     FM111500 09005KT P6SM FEW050 SCT250=



000
FTUS44 KMEG 102320
TAFJBR
TAF
KJBR 102320Z 1100/1124 19010KT P6SM SKC
     FM110800 05009KT P6SM FEW050 SCT250
     FM111500 05012G18KT P6SM FEW050 SCT250=



000
FTUS44 KMEG 102320
TAFMKL
TAF
KMKL 102320Z 1100/1124 21004KT P6SM SKC
     FM110100 12004KT P6SM FEW050 SCT100
     FM111200 06007KT P6SM FEW050 SCT250=



000
FTUS44 KMEG 102320
TAFTUP
TAF
KTUP 102320Z 1100/1124 20005KT P6SM SKC
     FM111500 09005KT P6SM FEW050 SCT250=



000
FTUS44 KMEG 102052 AAA
TAFMEM
TAF AMD
KMEM 102052Z 1021/1118 25008KT P6SM SCT050 SCT250
     FM110100 17006KT P6SM FEW050 SCT100
     FM111200 05008KT P6SM FEW050 SCT250=



000
FTUS44 KMEG 102052 AAA
TAFMEM
TAF AMD
KMEM 102052Z 1021/1118 25008KT P6SM SCT050 SCT250
     FM110100 17006KT P6SM FEW050 SCT100
     FM111200 05008KT P6SM FEW050 SCT250=



000
FTUS44 KMEG 101730
TAFJBR
TAF
KJBR 101730Z 1018/1118 21008KT P6SM OVC050
     FM102300 14006KT P6SM FEW050 SCT100
     FM110800 05009KT P6SM FEW050 SCT250
     FM111500 05012G18KT P6SM FEW050 SCT250=



000
FTUS44 KMEG 101730
TAFTUP
TAF
KTUP 101730Z 1018/1118 29008KT P6SM FEW050 SCT100
     FM110000 21003KT P6SM SCT100
     FM111500 09005KT P6SM FEW050 SCT250=



000
FTUS44 KMEG 101730
TAFMEM
TAF
KMEM 101730Z 1018/1118 25008KT P6SM SCT050 SCT250
     FM110100 17006KT P6SM FEW050 SCT100
     FM111200 05008KT P6SM FEW050 SCT250=



000
FTUS44 KMEG 101730
TAFMKL
TAF
KMKL 101730Z 1018/1118 28008KT P6SM SCT050 SCT250
      TEMPO 1020/1023 3SM -SN BKN025
     FM110100 12004KT P6SM FEW050 SCT100
     FM111200 06007KT P6SM FEW050 SCT250=



000
FTUS44 KMEG 101730
TAFMKL
TAF
KMKL 101730Z 1018/1118 28008KT P6SM SCT050 SCT250
      TEMPO 1020/1023 3SM -SN BKN025
     FM110100 12004KT P6SM FEW050 SCT100
     FM111200 06007KT P6SM FEW050 SCT250=



000
FTUS44 KMEG 101730
TAFMEM
TAF
KMEM 101730Z 1018/1118 25008KT P6SM SCT050 SCT250
     FM110100 17006KT P6SM FEW050 SCT100
     FM111200 05008KT P6SM FEW050 SCT250=



000
FTUS44 KMEG 101730
TAFJBR
TAF
KJBR 101730Z 1018/1118 21008KT P6SM OVC050
     FM102300 14006KT P6SM FEW050 SCT100
     FM110800 05009KT P6SM FEW050 SCT250
     FM111500 05012G18KT P6SM FEW050 SCT250=



000
FTUS44 KMEG 101730
TAFTUP
TAF
KTUP 101730Z 1018/1118 29008KT P6SM FEW050 SCT100
     FM110000 21003KT P6SM SCT100
     FM111500 09005KT P6SM FEW050 SCT250=



000
FTUS44 KMEG 101450 AAA
TAFMEM
TAF AMD
KMEM 101450Z 1015/1112 30008KT P6SM FEW250
     FM102200 19007KT P6SM FEW250
     FM110300 16006KT P6SM SCT100
     FM110600 18007KT P6SM SKC=



000
FTUS44 KMEG 101128
TAFJBR
TAF
KJBR 101128Z 1012/1112 31005KT P6SM SKC
     FM102000 19008KT P6SM SKC
     FM110200 13006KT P6SM SCT100
     FM110600 07009KT P6SM OVC250=



000
FTUS44 KMEG 101128
TAFMKL
TAF
KMKL 101128Z 1012/1112 31006KT P6SM SKC
     FM101500 29008KT P6SM SKC
     FM110000 VRB03KT P6SM SKC
     FM110500 15005KT P6SM BKN250=



000
FTUS44 KMEG 101128
TAFTUP
TAF
KTUP 101128Z 1012/1112 25004KT P6SM SKC
     FM101500 32007KT P6SM SKC
     FM110000 23003KT P6SM SCT100
     FM110600 VRB03KT P6SM BKN250=



000
FTUS44 KMEG 101128
TAFMEM
TAF
KMEM 101128Z 1012/1112 31007KT P6SM SKC
     FM101400 30008KT P6SM FEW045 FEW250
     FM102200 19007KT P6SM FEW250
     FM110300 16006KT P6SM SCT100
     FM110600 18007KT P6SM SKC=



000
FTUS44 KMEG 101128
TAFTUP
TAF
KTUP 101128Z 1012/1112 25004KT P6SM SKC
     FM101500 32007KT P6SM SKC
     FM110000 23003KT P6SM SCT100
     FM110600 VRB03KT P6SM BKN250=



000
FTUS44 KMEG 101128
TAFMEM
TAF
KMEM 101128Z 1012/1112 31007KT P6SM SKC
     FM101400 30008KT P6SM FEW045 FEW250
     FM102200 19007KT P6SM FEW250
     FM110300 16006KT P6SM SCT100
     FM110600 18007KT P6SM SKC=



000
FTUS44 KMEG 101128
TAFMKL
TAF
KMKL 101128Z 1012/1112 31006KT P6SM SKC
     FM101500 29008KT P6SM SKC
     FM110000 VRB03KT P6SM SKC
     FM110500 15005KT P6SM BKN250=



000
FTUS44 KMEG 101128
TAFJBR
TAF
KJBR 101128Z 1012/1112 31005KT P6SM SKC
     FM102000 19008KT P6SM SKC
     FM110200 13006KT P6SM SCT100
     FM110600 07009KT P6SM OVC250=



000
FTUS44 KMEG 100858 AAA
TAFMEM
TAF AMD
KMEM 100858Z 1009/1106 32010KT P6SM SKC
     FM101400 28008KT P6SM FEW045 BKN100
     FM102200 22006KT P6SM BKN100
     FM110300 16006KT P6SM SCT100=



000
FTUS44 KMEG 100858 AAA
TAFMEM
TAF AMD
KMEM 100858Z 1009/1106 32010KT P6SM SKC
     FM101400 28008KT P6SM FEW045 BKN100
     FM102200 22006KT P6SM BKN100
     FM110300 16006KT P6SM SCT100=



000
FTUS44 KMEG 100524
TAFMEM
TAF
KMEM 100524Z 1006/1106 31006KT P6SM SKC
     FM101400 28008KT P6SM FEW045 BKN100
     FM102200 22006KT P6SM BKN100
     FM110300 16006KT P6SM SCT100=



000
FTUS44 KMEG 100524
TAFMKL
TAF
KMKL 100524Z 1006/1106 31006KT P6SM FEW050
     FM101500 30010KT P6SM SCT045 BKN100
     FM110000 VRB03KT P6SM FEW045 BKN100
     FM110500 13005KT P6SM SCT100=



000
FTUS44 KMEG 100524
TAFJBR
TAF
KJBR 100524Z 1006/1106 31008KT P6SM SKC
     FM101000 29008KT P6SM FEW045 BKN100
     FM102000 22006KT P6SM BKN100
     FM110200 13006KT P6SM SCT100=



000
FTUS44 KMEG 100524
TAFTUP
TAF
KTUP 100524Z 1006/1106 32004KT P6SM SKC
     FM101500 32008KT P6SM FEW045 BKN100
     FM110000 23003KT P6SM SCT100=



000
FTUS44 KMEG 100258 AAA
TAFMEM
TAF AMD
KMEM 100258Z 1003/1024 32006KT P6SM FEW250
     FM101400 30008KT P6SM FEW050 SCT120
     FM102200 24006KT P6SM FEW120=



000
FTUS44 KMEG 092359 AAA
TAFMKL
TAF AMD
KMKL 092359Z 1000/1024 32006KT P6SM BKN050
     FM100300 31006KT P6SM FEW050 FEW250
     FM101400 30010KT P6SM SCT050 BKN120
     FM102300 VRB03KT P6SM FEW120=



000
FTUS44 KMEG 092359 AAA
TAFMKL
TAF AMD
KMKL 092359Z 1000/1024 32006KT P6SM BKN050
     FM100300 31006KT P6SM FEW050 FEW250
     FM101400 30010KT P6SM SCT050 BKN120
     FM102300 VRB03KT P6SM FEW120=



000
FTUS44 KMEG 092322
TAFMKL
TAF
KMKL 092322Z 1000/1024 30006KT P6SM SCT050 SCT250
     FM101400 30010KT P6SM SCT050 BKN120
     FM102300 VRB03KT P6SM FEW120=



000
FTUS44 KMEG 092322
TAFTUP
TAF
KTUP 092322Z 1000/1024 32008KT P6SM FEW070 FEW250
     FM101400 33008KT P6SM FEW050 FEW120
     FM102300 VRB03KT P6SM SKC=



000
FTUS44 KMEG 092322
TAFMEM
TAF
KMEM 092322Z 1000/1024 33008KT P6SM FEW250
     FM101400 30008KT P6SM FEW050 SCT120
     FM102200 24006KT P6SM FEW120=



000
FTUS44 KMEG 092322
TAFJBR
TAF
KJBR 092322Z 1000/1024 32008KT P6SM FEW050 FEW250
     FM101000 29010KT P6SM FEW050 BKN120
     FM102200 24006KT P6SM SCT120=



000
FTUS44 KMEG 092322
TAFMKL
TAF
KMKL 092322Z 1000/1024 30006KT P6SM SCT050 SCT250
     FM101400 30010KT P6SM SCT050 BKN120
     FM102300 VRB03KT P6SM FEW120=



000
FTUS44 KMEG 092322
TAFMEM
TAF
KMEM 092322Z 1000/1024 33008KT P6SM FEW250
     FM101400 30008KT P6SM FEW050 SCT120
     FM102200 24006KT P6SM FEW120=



000
FTUS44 KMEG 092322
TAFJBR
TAF
KJBR 092322Z 1000/1024 32008KT P6SM FEW050 FEW250
     FM101000 29010KT P6SM FEW050 BKN120
     FM102200 24006KT P6SM SCT120=



000
FTUS44 KMEG 092322
TAFTUP
TAF
KTUP 092322Z 1000/1024 32008KT P6SM FEW070 FEW250
     FM101400 33008KT P6SM FEW050 FEW120
     FM102300 VRB03KT P6SM SKC=



000
FTUS44 KMEG 092057 AAA
TAFMKL
TAF AMD
KMKL 092057Z 0921/1018 32011G18KT P6SM OVC035
     FM100100 31006KT P6SM SCT050 SCT250
     FM101400 31010KT P6SM FEW150=



000
FTUS44 KMEG 092053 AAA
TAFMEM
TAF AMD
KMEM 092053Z 0921/1018 34015G22KT P6SM SCT050 BKN250
     FM100100 32007KT P6SM FEW050 SCT250
     FM101200 32008KT P6SM FEW150=



000
FTUS44 KMEG 092053 AAA
TAFMEM
TAF AMD
KMEM 092053Z 0921/1018 34015G22KT P6SM SCT050 BKN250
     FM100100 32007KT P6SM FEW050 SCT250
     FM101200 32008KT P6SM FEW150=



000
FTUS44 KMEG 091731
TAFMKL
TAF
KMKL 091731Z 0918/1018 32011G18KT P6SM -SHSN OVC025
      TEMPO 0918/0921 3SM BR
     FM092100 32011G18KT P6SM OVC035
     FM100100 31006KT P6SM SCT050 SCT250
     FM101400 31010KT P6SM FEW150=



000
FTUS44 KMEG 091731
TAFMEM
TAF
KMEM 091731Z 0918/1018 32015G22KT P6SM BKN050 BKN250
     FM101000 32007KT P6SM FEW050 SCT250
     FM101200 32008KT P6SM FEW150=



000
FTUS44 KMEG 091731
TAFTUP
TAF
KTUP 091731Z 0918/1018 31014G20KT P6SM SCT050
     FM100000 33004KT P6SM SCT070 SCT250
     FM101500 35010KT P6SM FEW035 FEW150=



000
FTUS44 KMEG 091731
TAFTUP
TAF
KTUP 091731Z 0918/1018 31014G20KT P6SM SCT050
     FM100000 33004KT P6SM SCT070 SCT250
     FM101500 35010KT P6SM FEW035 FEW150=



000
FTUS44 KMEG 091731
TAFJBR
TAF
KJBR 091731Z 0918/1018 32014G22KT P6SM BKN040
     FM100100 31007KT P6SM FEW050 SCT250
     FM100900 30009KT P6SM FEW030 SCT250=



000
FTUS44 KMEG 091731
TAFMKL
TAF
KMKL 091731Z 0918/1018 32011G18KT P6SM -SHSN OVC025
      TEMPO 0918/0921 3SM BR
     FM092100 32011G18KT P6SM OVC035
     FM100100 31006KT P6SM SCT050 SCT250
     FM101400 31010KT P6SM FEW150=



000
FTUS44 KMEG 091731
TAFMEM
TAF
KMEM 091731Z 0918/1018 32015G22KT P6SM BKN050 BKN250
     FM101000 32007KT P6SM FEW050 SCT250
     FM101200 32008KT P6SM FEW150=



000
FTUS44 KMEG 091731
TAFJBR
TAF
KJBR 091731Z 0918/1018 32014G22KT P6SM BKN040
     FM100100 31007KT P6SM FEW050 SCT250
     FM100900 30009KT P6SM FEW030 SCT250=



000
FTUS44 KMEG 091453 AAA
TAFMEM
TAF AMD
KMEM 091453Z 0915/1012 32015G22KT P6SM BKN050 BKN250
     FM092200 31012KT P6SM SCT060 SCT250
     FM100100 32007KT P6SM FEW060 SCT250=



000
FTUS44 KMEG 091130
TAFMEM
TAF
KMEM 091130Z 0912/1012 32010G16KT P6SM BKN050 OVC100
     FM091400 31015G22KT P6SM BKN050 BKN250
     FM092200 31012KT P6SM SCT060 SCT250
     FM100100 32007KT P6SM FEW060 SCT250=



000
FTUS44 KMEG 091130
TAFMKL
TAF
KMKL 091130Z 0912/1012 30010G16KT P6SM -SHSN FEW025 BKN035 OVC045
     FM091400 31014G20KT P6SM -SHSN SCT025 OVC035
      TEMPO 0914/0918 BKN025
     FM091900 30014G20KT P6SM SCT035 BKN050
     FM100000 31006KT P6SM SCT050 SCT250=



000
FTUS44 KMEG 091130
TAFJBR
TAF
KJBR 091130Z 0912/1012 30012G18KT P6SM BKN045
     FM091300 30015G22KT P6SM BKN040
     FM092200 30010G16KT P6SM SCT050 SCT250
     FM100100 30007KT P6SM FEW050 SCT250=



000
FTUS44 KMEG 091130
TAFTUP
TAF
KTUP 091130Z 0912/1012 31012G18KT P6SM OVC050
     FM100000 33004KT P6SM FEW070 SCT250=



000
FTUS44 KMEG 090859 AAA
TAFMEM
TAF AMD
KMEM 090859Z 0909/1006 32010G16KT P6SM BKN060 OVC100
     FM091400 31015G22KT P6SM BKN060 BKN250
     FM092200 31012KT P6SM SCT060 SCT250
     FM100100 32007KT P6SM FEW060 SCT250=



000
FTUS44 KMEG 090555 CCA
TAFJBR
TAF COR
KJBR 090555Z 0906/1006 30012G18KT P6SM BKN050
     FM091300 30015G22KT P6SM BKN040
     FM092200 30010G16KT P6SM SCT050 SCT250
     FM100100 30007KT P6SM FEW050 SCT250=



000
FTUS44 KMEG 090523 CCB
TAFMEM
TAF COR
KMEM 090523Z 0906/1006 32010G16KT P6SM BKN060 OVC100
     FM091400 31015G22KT P6SM BKN060 BKN250
     FM092200 31012KT P6SM SCT060 SCT250
     FM100100 32007KT P6SM FEW060 SCT250=



000
FTUS44 KMEG 090522
TAFTUP
TAF
KTUP 090522Z 0906/1006 31012G18KT P6SM FEW040 OVC070
     FM100000 33007KT P6SM FEW070 SCT250=



000
FTUS44 KMEG 090522
TAFMKL
TAF
KMKL 090522Z 0906/1006 30010G16KT P6SM VCSH SCT035 OVC050
      TEMPO 0910/0914 BKN035
     FM091400 31014G20KT P6SM -SHSN OVC035
     FM091900 30014G20KT P6SM SCT035 BKN050
     FM100000 31007KT P6SM SCT050 SCT250=



000
FTUS44 KMEG 090522
TAFJBR
TAF
KJBR 090522Z 0906/1006 30012G18KT P6SM BKN050
     FM091300 30015G22KT P6SM BKN050
     FM092200 30010G16KT P6SM SCT050 SCT250
     FM100100 30007KT P6SM FEW050 SCT250=



000
FTUS44 KMEG 090522
TAFMEM
TAF
KMEM 090522Z 0906/1006 30010G16KT P6SM BKN060 OVC100
     FM091400 31015G22KT P6SM BKN060 BKN250
     FM092200 31012KT P6SM SCT060 SCT250
     FM100100 32007KT P6SM FEW060 SCT250=



000
FTUS44 KMEG 090522 CCA
TAFMEM
TAF COR
KMEM 090522Z 0906/1006 32010G16KT P6SM BKN060 OVC100
     FM091400 31015G22KT P6SM BKN060 BKN250
     FM092200 31012KT P6SM SCT060 SCT250
     FM100100 32007KT P6SM FEW060 SCT250=



000
FTUS44 KMEG 090339 AAA
TAFMEM
TAF AMD
KMEM 090339Z 0904/0924 30013G20KT P6SM BKN070 BKN100
     FM091400 31016G24KT P6SM BKN045
     FM092300 31010G16KT P6SM SCT050=



000
FTUS44 KMEG 090339 AAA
TAFMEM
TAF AMD
KMEM 090339Z 0904/0924 30013G20KT P6SM BKN070 BKN100
     FM091400 31016G24KT P6SM BKN045
     FM092300 31010G16KT P6SM SCT050=



000
FTUS44 KMEG 082324
TAFTUP
TAF
KTUP 082324Z 0900/0924 28010G16KT P6SM OVC070
     FM091400 33012G18KT P6SM OVC045
     FM092300 33007KT P6SM SCT050=



000
FTUS44 KMEG 082324
TAFMEM
TAF
KMEM 082324Z 0900/0924 30016G24KT P6SM OVC050
     FM090600 31012G18KT P6SM OVC040
     FM091400 31016G24KT P6SM BKN045
     FM092300 31010G16KT P6SM SCT050=



000
FTUS44 KMEG 082324
TAFMKL
TAF
KMKL 082324Z 0900/0924 30012G18KT P6SM VCSH SCT030 OVC040
      TEMPO 0910/0914 -SHSN BKN030
     FM091400 31015G22KT P6SM -SHSN VCSH OVC030
     FM091900 30015G22KT P6SM VCSH OVC040=



000
FTUS44 KMEG 082324
TAFJBR
TAF
KJBR 082324Z 0900/0924 31016G24KT P6SM OVC050
     FM090600 29012G18KT P6SM OVC040
     FM091300 30016G24KT P6SM BKN045
     FM092200 29010G16KT P6SM SCT050=



000
FTUS44 KMEG 082058 AAA
TAFMEM
TAF AMD
KMEM 082058Z 0821/0918 30020G30KT P6SM OVC050
     FM090000 30012KT P6SM OVC050
     FM090200 31012G20KT P6SM OVC035=



000
FTUS44 KMEG 081730
TAFJBR
TAF
KJBR 081730Z 0818/0918 31020G30KT P6SM OVC050
     FM082200 30015G25KT P6SM OVC035
     FM090600 28012G18KT P6SM OVC035
     FM091100 30015G25KT P6SM OVC050=



000
FTUS44 KMEG 081730
TAFMKL
TAF
KMKL 081730Z 0818/0918 30015G25KT P6SM OVC050
     FM090000 30012KT P6SM OVC035
     FM090600 31012KT P6SM -SHSN OVC035
      TEMPO 0913/0917 OVC025=



000
FTUS44 KMEG 081730
TAFTUP
TAF
KTUP 081730Z 0818/0918 28012G18KT P6SM OVC070
     FM082000 29012G18KT P6SM OVC050
     FM090000 31010KT P6SM OVC035
     FM091400 32010G18KT P6SM OVC035=



000
FTUS44 KMEG 081730
TAFMEM
TAF
KMEM 081730Z 0818/0918 30017G27KT P6SM BKN050
     FM082000 30020G30KT P6SM OVC050
     FM090000 30012KT P6SM OVC050
     FM090200 31012G20KT P6SM OVC035=



000
FTUS44 KMEG 081523 AAB
TAFJBR
TAF AMD
KJBR 081523Z 0815/0912 31020G30KT P6SM -SN OVC050
     FM090000 30012G18KT P6SM BKN035
     FM090600 29012G18KT P6SM OVC050
     FM091100 30013G20KT P6SM SCT250=



000
FTUS44 KMEG 081459 AAA
TAFMEM
TAF AMD
KMEM 081459Z 0815/0912 30017G27KT P6SM BKN050
     FM090000 30012KT P6SM BKN040
     FM090600 31012G19KT P6SM OVC050=



000
FTUS44 KMEG 081459 AAA
TAFMEM
TAF AMD
KMEM 081459Z 0815/0912 30017G27KT P6SM BKN050
     FM090000 30012KT P6SM BKN040
     FM090600 31012G19KT P6SM OVC050=



000
FTUS44 KMEG 081422 AAA
TAFJBR
TAF AMD
KJBR 081422Z 0814/0912 31018G24KT P6SM -SN OVC035
     FM090000 30012G18KT P6SM BKN035
     FM090600 29012G18KT P6SM OVC050
     FM091100 30013G20KT P6SM SCT250=



000
FTUS44 KMEG 081422 AAA
TAFJBR
TAF AMD
KJBR 081422Z 0814/0912 31018G24KT P6SM -SN OVC035
     FM090000 30012G18KT P6SM BKN035
     FM090600 29012G18KT P6SM OVC050
     FM091100 30013G20KT P6SM SCT250=



000
FTUS44 KMEG 081128
TAFJBR
TAF
KJBR 081128Z 0812/0912 29008KT P6SM BKN250
     FM081400 31018G24KT P6SM OVC035
     FM090000 30012G18KT P6SM BKN035
     FM090600 29012G18KT P6SM OVC050
     FM091100 30013G20KT P6SM SCT250=



000
FTUS44 KMEG 081128
TAFTUP
TAF
KTUP 081128Z 0812/0912 28007KT P6SM OVC090
     FM081500 31011G18KT P6SM OVC035
     FM090600 33006KT P6SM OVC100=



000
FTUS44 KMEG 081128
TAFMKL
TAF
KMKL 081128Z 0812/0912 29016G20KT P6SM SKC
     FM081500 30015G25KT P6SM OVC035
      TEMPO 0900/0904 6SM -SN
     FM090600 31010KT P6SM -SHSN OVC050=



000
FTUS44 KMEG 081128
TAFMEM
TAF
KMEM 081128Z 0812/0912 30011G21KT P6SM BKN250
     FM081500 30017G27KT P6SM OVC035
     FM090000 30012KT P6SM BKN040
     FM090600 31012G19KT P6SM OVC050=



000
FTUS44 KMEG 080901 AAA
TAFMEM
TAF AMD
KMEM 080901Z 0809/0906 30010KT P6SM OVC090
     FM081500 30017G27KT P6SM OVC035
     FM090000 30012KT P6SM BKN040=



    US Dept of Commerce
    National Oceanic and Atmospheric Administration
    National Weather Service
    1325 East West Highway
    Silver Spring, MD 20910
    Page Author: NWS Internet Services Team
Disclaimer
Information Quality
Credits
Glossary
Privacy Policy
Freedom of Information Act (FOIA)
About Us
Career Opportunities